Weather observations for the past three days for
Air Force Academy
Metric (Imperial)
Date Time (mdt) Wind (kph) Vis. (km) Weather Sky Cond. Temperature (ºC) Relative Humidity Wind Chill (°C) Heat Index (°C) Pressure Precipitation (cm)
Air Dwpt 6 hour altimeter (cm) sea level (mb) 1 hr 3 hr 6 hr
Max. Min.
04 22:55 N 13 16.09 Overcast SCT090 OVC110 8.6 3.2 69% 7 75.97 1006.3
04 21:55 N 22 16.09 A Few Clouds FEW075 FEW170 8.9 3.3 68% 6 75.9 1005.8
04 20:55 N 15 16.09 Overcast FEW047 BKN055 OVC100 9.4 4.2 70% 7 75.87 1006.0
04 19:55 NE 17 16.09 Light Rain FEW033 BKN048 OVC090 9.8 3.7 66% 8 75.9 1006.3
04 18:55 N 28 16.09 Overcast FEW047 OVC065 13.6 -0.5 38% 75.82 1004.7
04 17:55 N 26 16.09 Partly Cloudy SCT070 SCT200 16.7 -3.4 21.4 16.7 25% 75.69 1002.9
04 16:55 SE 15 16.09 Overcast OVC075 17 -1.7 28% 75.69 1002.9
04 15:55 S 20 16.09 Overcast FEW070 OVC090 18.2 -3.3 23% 75.64 1001.7
04 14:55 N 33 G 48 16.09 Mostly Cloudy and Breezy BKN130 BKN160 20.3 -5.6 17% 75.62 1001.9
04 13:55 W 33 G 50 16.09 Mostly Cloudy and Breezy FEW075 BKN100 18.7 -6.1 18% 75.69 1002.9
04 12:55 SW 17 16.09 Mostly Cloudy BKN120 20.4 -10 12% 75.72 1003.3
04 11:55 SW 11 16.09 Partly Cloudy SCT130 20.4 -8 20.4 9.6 14% 75.77 1004.0
04 10:55 W 30 G 54 16.09 Partly Cloudy SCT120 19.1 -3.8 21% 75.84 1004.5
04 09:55 W 31 G 59 16.09 Overcast OVC120 16.6 -3.5 25% 75.87 1004.8
04 08:55 W 43 G 59 16.09 Mostly Cloudy and Windy BKN150 15 -3.9 27% 75.87 1004.3
04 07:55 NW 13 16.09 Mostly Cloudy BKN130 13.9 -4.3 28% 75.87 1004.3
04 06:55 N 11 16.09 Partly Cloudy SCT170 12.5 -5.5 28% 75.87 1003.7
04 05:55 N 9 16.09 Mostly Cloudy BKN180 9.5 -4.8 11.3 5.3 36% 8 75.87 1004.3
04 04:55 NE 7 16.09 Fair CLR 8.2 -4.3 41% 7 75.9 1005.2
04 03:55 NW 9 16.09 Fair CLR 9.6 -5.1 35% 9 75.9 1004.6
04 02:55 NE 11 16.09 A Few Clouds FEW220 5.4 -3.4 53% 3 75.95 1007.0
04 01:55 N 9 16.09 Mostly Cloudy BKN130 6.3 -2.6 53% 5 75.97 1007.4
04 00:55 N 17 16.09 A Few Clouds FEW140 6 -1.9 57% 3 76.02 1008.1
03 23:55 N 13 16.09 Fair CLR 6.5 -2.9 19.5 6.5 51% 4 76.05 1007.9
03 22:55 N 9 16.09 Fair CLR 9.2 -2.7 43% 8 76.07 1007.7
03 21:55 N 9 16.09 A Few Clouds FEW130 11.1 -3 37% 76.07 1007.7
03 20:55 N 11 16.09 Partly Cloudy SCT120 14.7 -4.6 26% 76.05 1006.7
03 19:55 NW 9 16.09 Mostly Cloudy BKN120 16.7 -6.4 20% 76.02 1007.0
03 18:55 NE 19 16.09 Overcast BKN090 OVC110 18.1 -7.4 17% 76 1007.8
03 17:55 NE 26 16.09 Overcast BKN120 BKN150 OVC200 19.6 -8.7 20.8 18.1 14% 75.97 1007.4
03 16:55 SW 6 16.09 Mostly Cloudy BKN120 20.7 -9.8 12% 75.97 1006.8
03 15:55 E 19 16.09 A Few Clouds FEW110 20 -10.3 12% 76.05 1008.5
03 14:55 E 6 16.09 Overcast OVC110 19 -12.2 11% 76.12 1010.1
03 13:55 Calm 16.09 Mostly Cloudy SCT110 SCT180 BKN210 19 -13.3 10% 76.2 1011.1
03 12:55 NE 9 G 26 16.09 Mostly Cloudy BKN110 18.5 -13.7 10% 76.25 1011.9
03 11:55 N 30 G 37 16.09 Partly Cloudy FEW110 SCT200 19.6 -8.7 19.6 3.4 14% 76.33 1012.3
03 10:55 NW 13 G 37 16.09 A Few Clouds FEW170 FEW200 18.4 -9.6 14% 76.4 1013.4
03 09:55 N 13 G 30 16.09 Partly Cloudy FEW170 SCT200 16.9 -7.6 18% 76.45 1014.1
03 08:55 N 17 16.09 A Few Clouds FEW180 FEW210 15.3 -6.3 22% 76.48 1013.9
03 07:55 N 13 16.09 A Few Clouds FEW210 11.3 -2.9 37% 76.48 1014.5
03 06:55 N 9 16.09 Fair CLR 5.6 -1.3 62% 4 76.45 1014.7
03 05:55 N 15 16.09 Fair CLR 3.3 -4 6.1 2.5 59% 0 76.43 1014.9
03 04:55 NE 7 16.09 Fair CLR 5.6 -4.3 49% 4 76.4 1013.4
03 03:55 N 11 16.09 Fair CLR 3.7 -5 53% 1 76.43 1014.3
03 02:55 N 15 16.09 Fair CLR 3.8 -4.9 53% 1 76.43 1014.3
03 01:55 N 19 16.09 Fair CLR 3.3 -4.4 57% -1 76.45 1015.3
03 00:55 N 20 16.09 Fair CLR 2.9 -4.3 60% -1 76.5 1016.6
02 23:55 N 13 16.09 Fair CLR 4.3 -4.7 17.8 4.1 52% 2 76.53 1016.3
02 22:55 NE 9 16.09 Fair CLR 6 -4.8 46% 4 76.53 1016.3
02 21:55 Calm 16.09 Fair CLR 8 -4.8 40% 76.53 1016.3
02 20:55 SE 11 16.09 Fair CLR 11.3 -7.5 26% 76.48 1015.0
02 19:55 S 15 16.09 Fair CLR 13.5 -7.8 22% 76.45 1014.7
02 18:55 S 22 16.09 Fair CLR 16.5 -8.7 17% 76.43 1015.5
02 17:55 S 22 16.09 Fair CLR 17.9 -7.5 18.5 15.3 17% 76.43 1015.5
02 16:55 S 22 G 30 16.09 Fair CLR 18.3 -7.2 17% 76.45 1015.9
02 15:55 S 11 G 33 16.09 Fair CLR 17.9 -6.8 18% 76.53 1016.9
02 14:55 SW 15 G 31 16.09 Fair CLR 17.7 -7.7 17% 76.58 1017.6
02 13:55 SE 15 G 31 16.09 Fair CLR 16.8 -7 19% 76.61 1018.0
02 12:55 SE 13 16.09 Fair CLR 15.6 -8 19% 76.66 1018.7
02 11:55 S 15 16.09 Fair CLR 15.2 -8.3 15.2 -1 19% 76.71 1020.0
02 10:55 SE 9 16.09 Fair CLR 14 -8 21% 76.73 1020.4
02 09:55 Calm 16.09 Fair CLR 12.6 -9.2 21% 76.73 1020.4
02 08:55 Calm 16.09 Fair CLR 11.1 -6.7 28% 76.78 1021.1
02 07:55 NE 7 16.09 Fair CLR 7.9 -4.9 40% 7 76.78 1021.1
02 06:55 N 9 16.09 Fair CLR 0.6 -4.4 70% -2 76.76 1022.0
02 05:55 NE 7 16.09 Fair CLR -0.6 -5.8 1.8 -1 68% -3 76.73 1021.6
02 04:55 N 11 16.09 Fair CLR -0.7 -6.1 67% -4 76.73 1022.3
02 03:55 N 17 16.09 Fair CLR -0.7 -5.7 69% -5 76.71 1021.3
02 02:55 N 17 16.09 Fair CLR -0.2 -5.6 67% -5 76.71 1021.3
02 01:55 N 17 16.09 Fair CLR 0.5 -5.3 65% -4 76.71 1021.9
02 00:55 N 15 16.09 Fair CLR 1.3 -5 63% -2 76.71 1021.9
01 23:55 N 20 16.09 Fair CLR 1.7 -4.4 12 1.3 64% -3 76.71 1021.3
Date Time (mdt) Wind (kph) Vis. (km) Weather Sky Cond. Air Dwpt Max. Min. Relative Humidity Wind Chill (°C) Heat Index (°C) altimeter (cm) sea level (mb) 1 hr 3 hr 6 hr
6 hour
Temperature (ºC) Pressure Precipitation (cm)